EDT,Max TemperatureF,Mean TemperatureF,Min TemperatureF,Max Dew PointF,MeanDew PointF,Min DewpointF,Max Humidity, Mean Humidity, Min Humidity, Max Sea Level PressureIn, Mean Sea Level PressureIn, Min Sea Level PressureIn, Max VisibilityMiles, Mean VisibilityMiles, Min VisibilityMiles, Max Wind SpeedMPH, Mean Wind SpeedMPH, Max Gust SpeedMPH,PrecipitationIn, CloudCover, Events, WindDirDegrees
2012-10-1,71,58,46,53,45,41,89,67,39,29.94,29.86,29.79,,,,13,8,17,0.00,,,208
2012-10-2,62,54,46,52,50,43,90,78,62,29.97,29.93,29.86,,,,15,10,,0.00,,,14
2012-10-3,70,58,46,56,49,45,93,80,51,30.00,29.98,29.95,,,,14,5,,0.00,,,180
2012-10-4,72,58,45,54,48,32,93,75,48,29.98,29.86,29.74,,,,18,7,33,0.00,,,186
2012-10-5,48,44,39,31,27,24,65,52,44,29.89,29.88,29.83,,,,10,5,23,0.00,,,228
2012-10-6,46,41,35,37,34,29,89,74,56,30.12,29.98,29.81,,,,23,14,32,0.18,,,330
2012-10-7,52,42,33,33,26,15,92,61,24,30.10,30.04,29.98,,,,12,7,17,0.05,,,227
2012-10-8,57,45,33,39,27,19,59,49,33,29.98,29.87,29.70,,,,22,11,36,0.00,,,193
2012-10-9,55,47,39,46,38,34,90,67,47,29.74,29.69,29.64,,,,20,11,31,0.46,,,202
2012-10-10,43,38,35,34,29,21,89,71,45,30.02,29.87,29.70,,,,14,8,25,0.40,,,262
2012-10-11,48,41,34,37,31,23,92,71,48,30.22,30.00,29.87,,,,26,9,43,0.24,,,274
2012-10-12,48,41,34,32,26,21,75,53,36,30.42,30.35,30.26,,,,14,9,,0.00,,,228
2012-10-13,50,44,37,46,40,30,90,83,73,30.25,29.93,29.75,,,,12,5,22,0.04,,,194
2012-10-14,51,48,46,47,45,41,89,84,80,29.79,29.66,29.52,,,,29,14,41,1.08,,,18
2012-10-15,46,41,34,41,37,31,89,75,65,29.93,29.80,29.60,,,,26,18,33,0.12,,,346
2012-10-16,53,43,34,47,41,31,89,82,76,29.92,29.74,29.56,,,,14,8,24,0.24,,,188
2012-10-17,68,56,46,54,48,43,86,74,56,29.55,29.42,29.34,,,,18,8,30,0.00,,,175
2012-10-18,59,52,46,55,49,41,90,84,77,29.53,29.32,29.19,,,,16,10,30,0.66,,,164
2012-10-19,54,49,45,45,42,41,90,82,66,29.65,29.60,29.54,,,,10,5,,0.26,,,109
2012-10-20,55,46,39,47,42,37,93,85,72,29.83,29.73,29.63,,,,16,5,,0.00,,,262
2012-10-21,62,48,34,43,38,32,93,73,42,30.00,29.95,29.85,,,,10,7,,0.00,,,189
2012-10-22,57,50,44,49,46,42,93,84,74,30.06,30.03,29.98,,,,13,6,,0.00,,,318
2012-10-23,60,55,51,48,46,44,86,75,58,30.03,29.98,29.93,,,,17,7,29,0.01,,,120
2012-10-24,60,55,51,56,53,48,93,89,86,29.93,29.88,29.77,,,,17,12,28,0.01,,,175
2012-10-25,64,54,45,59,54,37,90,84,74,29.79,29.62,29.48,,,,20,11,30,0.95,,,212
2012-10-26,45,40,36,35,28,23,76,60,47,30.31,30.14,29.84,,,,16,9,22,0.00,,,256
2012-10-27,43,34,27,29,23,21,78,59,45,30.35,30.31,30.28,,,,14,6,,0.00,,,275
2012-10-28,45,40,35,30,26,20,67,57,48,30.39,30.37,30.35,,,,14,8,,0.00,,,333
2012-10-29,45,36,26,33,29,23,88,66,55,30.37,30.33,30.21,,,,28,13,40,0.00,,,19
2012-10-30,43,40,37,34,31,28,89,74,56,30.19,30.01,29.86,,,,31,28,44,0.36,,,5
2012-10-31,41,39,37,36,35,34,86,83,76,29.84,29.78,29.75,,,,29,25,38,0.14,,,351